Blanco, Texas
Current Conditions -  °F | °C
As of 5:15 PM on Sunday 21 Dec 2014 (Local Time) from KDZB Reporting Station
Scattered Clouds Scattered Clouds  
Wind Chill: 55°   Ceiling: Unl
Heat Index: 55°   Visibility: 10mi
Dew Point: 47°   Wind: 5mph
Humidity: 74%   Direction: 220°SW
Pressure: 29.86"   Gusts: NA
Location:  30.1°N, 98.42°W
Report Text: KDZB 212315Z AUTO 22004KT 10SM SCT021 13/08 A2986 RMK AO2 T01290083
Loading
Personal Weather Stations






























Interactive Weather Map New forecast layout! Learn more

10-Day Weather Forecast

Advertisements
Track Severe Weather on mobile